Time,TemperatureF,DewpointF,PressureIn,WindDirection,WindDirectionDegrees,WindSpeedMPH,WindSpeedGustMPH,Humidity,HourlyPrecipIn,Conditions,Clouds,dailyrainin,SoftwareType,DateUTC
2013-01-13 00:00:00,37.0,37.0,30.15,NNE,33,0.0,3.0,100,-99.99,,,-99.99,,2013-01-13 05:00:00,
2013-01-13 00:23:00,37.0,37.0,30.15,NNE,33,0.0,3.0,100,-99.99,,,-99.99,,2013-01-13 05:23:00,
2013-01-13 00:33:00,37.0,37.0,30.15,NNE,33,0.0,3.0,100,-99.99,,,-99.99,,2013-01-13 05:33:00,
2013-01-13 00:42:00,37.0,37.0,30.15,NNE,33,0.0,3.0,100,-99.99,,,-99.99,,2013-01-13 05:42:00,
2013-01-13 00:53:00,37.0,37.0,30.15,NNE,33,0.0,3.0,100,-99.99,,,-99.99,,2013-01-13 05:53:00,
2013-01-13 01:00:00,37.0,37.0,30.15,WNW,289,0.0,2.0,100,-99.99,,,-99.99,,2013-01-13 06:00:00,
2013-01-13 01:22:00,37.0,37.0,30.15,WNW,289,0.0,2.0,100,-99.99,,,-99.99,,2013-01-13 06:22:00,
2013-01-13 01:33:00,37.0,37.0,30.15,WNW,289,0.0,2.0,100,-99.99,,,-99.99,,2013-01-13 06:33:00,
2013-01-13 01:42:00,37.0,37.0,30.15,WNW,289,0.0,2.0,100,-99.99,,,-99.99,,2013-01-13 06:42:00,
2013-01-13 01:52:00,37.0,37.0,30.15,WNW,289,0.0,2.0,100,-99.99,,,-99.99,,2013-01-13 06:52:00,
2013-01-13 02:00:00,37.0,37.0,30.12,SW,232,0.0,3.0,100,-99.99,,,-99.99,,2013-01-13 07:00:00,
2013-01-13 02:22:00,37.0,37.0,30.12,SW,232,0.0,3.0,100,-99.99,,,-99.99,,2013-01-13 07:22:00,
2013-01-13 02:33:00,37.0,37.0,30.12,SW,232,0.0,3.0,100,-99.99,,,-99.99,,2013-01-13 07:33:00,
2013-01-13 02:42:00,37.0,37.0,30.12,SW,232,0.0,3.0,100,-99.99,,,-99.99,,2013-01-13 07:42:00,
2013-01-13 02:53:00,37.0,37.0,30.12,SW,232,0.0,3.0,100,-99.99,,,-99.99,,2013-01-13 07:53:00,
2013-01-13 03:00:00,37.0,37.0,30.15,West,275,0.0,3.0,100,-99.99,,,-99.99,,2013-01-13 08:00:00,
2013-01-13 03:22:00,37.0,37.0,30.15,West,275,0.0,3.0,100,-99.99,,,-99.99,,2013-01-13 08:22:00,
2013-01-13 03:32:00,37.0,37.0,30.15,West,275,0.0,3.0,100,-99.99,,,-99.99,,2013-01-13 08:32:00,
2013-01-13 03:42:00,37.0,37.0,30.15,West,275,0.0,3.0,100,-99.99,,,-99.99,,2013-01-13 08:42:00,
2013-01-13 03:53:00,37.0,37.0,30.15,West,275,0.0,3.0,100,-99.99,,,-99.99,,2013-01-13 08:53:00,
2013-01-13 04:00:00,37.0,37.0,30.12,ENE,75,1.0,2.0,100,-99.99,,,-99.99,,2013-01-13 09:00:00,
2013-01-13 04:22:00,37.0,37.0,30.12,ENE,75,1.0,2.0,100,-99.99,,,-99.99,,2013-01-13 09:22:00,
2013-01-13 04:32:00,37.0,37.0,30.12,ENE,75,1.0,2.0,100,-99.99,,,-99.99,,2013-01-13 09:32:00,
2013-01-13 04:43:00,37.0,37.0,30.12,ENE,75,1.0,2.0,100,-99.99,,,-99.99,,2013-01-13 09:43:00,
2013-01-13 04:53:00,37.0,37.0,30.12,ENE,75,1.0,2.0,100,-99.99,,,-99.99,,2013-01-13 09:53:00,
2013-01-13 05:00:00,37.0,37.0,30.09,WNW,294,0.0,1.0,100,-99.99,,,-99.99,,2013-01-13 10:00:00,
2013-01-13 05:22:00,37.0,37.0,30.09,WNW,294,0.0,1.0,100,-99.99,,,-99.99,,2013-01-13 10:22:00,
2013-01-13 05:32:00,37.0,37.0,30.09,WNW,294,0.0,1.0,100,-99.99,,,-99.99,,2013-01-13 10:32:00,
2013-01-13 05:42:00,37.0,37.0,30.09,WNW,294,0.0,1.0,100,-99.99,,,-99.99,,2013-01-13 10:42:00,
2013-01-13 05:53:00,37.0,37.0,30.09,WNW,294,0.0,1.0,100,-99.99,,,-99.99,,2013-01-13 10:53:00,
2013-01-13 06:00:00,37.0,37.0,30.12,SW,216,1.0,4.0,100,-99.99,,,-99.99,,2013-01-13 11:00:00,
2013-01-13 06:22:00,37.0,37.0,30.12,SW,216,1.0,4.0,100,-99.99,,,-99.99,,2013-01-13 11:22:00,
2013-01-13 06:33:00,37.0,37.0,30.12,SW,216,1.0,4.0,100,-99.99,,,-99.99,,2013-01-13 11:33:00,
2013-01-13 06:43:00,37.0,37.0,30.12,SW,216,1.0,4.0,100,-99.99,,,-99.99,,2013-01-13 11:43:00,
2013-01-13 06:53:00,37.0,37.0,30.12,SW,216,1.0,4.0,100,-99.99,,,-99.99,,2013-01-13 11:53:00,
2013-01-13 07:00:00,37.0,37.0,30.12,West,266,3.0,4.0,100,-99.99,,,-99.99,,2013-01-13 12:00:00,
2013-01-13 07:22:00,37.0,37.0,30.12,West,266,3.0,4.0,100,-99.99,,,-99.99,,2013-01-13 12:22:00,
2013-01-13 07:33:00,37.0,37.0,30.12,West,266,3.0,4.0,100,-99.99,,,-99.99,,2013-01-13 12:33:00,
2013-01-13 07:42:00,37.0,37.0,30.12,West,266,3.0,4.0,100,-99.99,,,-99.99,,2013-01-13 12:42:00,
2013-01-13 07:53:00,37.0,37.0,30.12,West,266,3.0,4.0,100,-99.99,,,-99.99,,2013-01-13 12:53:00,
2013-01-13 08:00:00,37.0,37.0,30.12,SW,223,0.0,3.0,100,-99.99,,,-99.99,,2013-01-13 13:00:00,
2013-01-13 08:22:00,37.0,37.0,30.12,SW,223,0.0,3.0,100,-99.99,,,-99.99,,2013-01-13 13:22:00,
2013-01-13 08:33:00,37.0,37.0,30.12,SW,223,0.0,3.0,100,-99.99,,,-99.99,,2013-01-13 13:33:00,
2013-01-13 08:43:00,37.0,37.0,30.12,SW,223,0.0,3.0,100,-99.99,,,-99.99,,2013-01-13 13:43:00,
2013-01-13 08:53:00,37.0,37.0,30.12,SW,223,0.0,3.0,100,-99.99,,,-99.99,,2013-01-13 13:53:00,
2013-01-13 09:00:00,38.0,38.0,30.12,ENE,61,0.0,4.0,100,-99.99,,,-99.99,,2013-01-13 14:00:00,
2013-01-13 09:22:00,38.0,38.0,30.12,ENE,61,0.0,4.0,100,-99.99,,,-99.99,,2013-01-13 14:22:00,
2013-01-13 09:33:00,38.0,38.0,30.12,ENE,61,0.0,4.0,100,-99.99,,,-99.99,,2013-01-13 14:33:00,
2013-01-13 09:43:00,38.0,38.0,30.12,ENE,61,0.0,4.0,100,-99.99,,,-99.99,,2013-01-13 14:43:00,
2013-01-13 09:53:00,38.0,38.0,30.12,ENE,61,0.0,4.0,100,-99.99,,,-99.99,,2013-01-13 14:53:00,
2013-01-13 10:00:00,38.0,38.0,30.15,SSW,210,1.0,6.0,100,-99.99,,,-99.99,,2013-01-13 15:00:00,
2013-01-13 10:23:00,38.0,38.0,30.15,SSW,210,1.0,6.0,100,-99.99,,,-99.99,,2013-01-13 15:23:00,
2013-01-13 10:33:00,38.0,38.0,30.15,SSW,210,1.0,6.0,100,-99.99,,,-99.99,,2013-01-13 15:33:00,
2013-01-13 10:43:00,38.0,38.0,30.15,SSW,210,1.0,6.0,100,-99.99,,,-99.99,,2013-01-13 15:43:00,
2013-01-13 10:53:00,38.0,38.0,30.15,SSW,210,1.0,6.0,100,-99.99,,,-99.99,,2013-01-13 15:53:00,
2013-01-13 11:00:00,39.0,39.0,30.12,NNW,344,0.0,6.0,100,-99.99,,,-99.99,,2013-01-13 16:00:00,
2013-01-13 11:23:00,39.0,39.0,30.12,NNW,344,0.0,6.0,100,-99.99,,,-99.99,,2013-01-13 16:23:00,
2013-01-13 11:33:00,39.0,39.0,30.12,NNW,344,0.0,6.0,100,-99.99,,,-99.99,,2013-01-13 16:33:00,
2013-01-13 11:43:00,39.0,39.0,30.12,NNW,344,0.0,6.0,100,-99.99,,,-99.99,,2013-01-13 16:43:00,
2013-01-13 11:53:00,39.0,39.0,30.12,NNW,344,0.0,6.0,100,-99.99,,,-99.99,,2013-01-13 16:53:00,
2013-01-13 12:00:00,38.0,38.0,30.12,West,264,0.0,8.0,100,-99.99,,,-99.99,,2013-01-13 17:00:00,
2013-01-13 12:22:00,38.0,38.0,30.12,West,264,0.0,8.0,100,-99.99,,,-99.99,,2013-01-13 17:22:00,
2013-01-13 12:33:00,38.0,38.0,30.12,West,264,0.0,8.0,100,-99.99,,,-99.99,,2013-01-13 17:33:00,
2013-01-13 12:43:00,38.0,38.0,30.12,West,264,0.0,8.0,100,-99.99,,,-99.99,,2013-01-13 17:43:00,
2013-01-13 12:53:00,38.0,38.0,30.12,West,264,0.0,8.0,100,-99.99,,,-99.99,,2013-01-13 17:53:00,
2013-01-13 13:00:00,39.0,39.0,30.06,SSW,196,3.0,6.0,100,-99.99,,,-99.99,,2013-01-13 18:00:00,
2013-01-13 13:23:00,39.0,39.0,30.06,SSW,196,3.0,6.0,100,-99.99,,,-99.99,,2013-01-13 18:23:00,
2013-01-13 13:33:00,39.0,39.0,30.06,SSW,196,3.0,6.0,100,-99.99,,,-99.99,,2013-01-13 18:33:00,
2013-01-13 13:43:00,39.0,39.0,30.06,SSW,196,3.0,6.0,100,-99.99,,,-99.99,,2013-01-13 18:43:00,
2013-01-13 13:53:00,39.0,39.0,30.06,SSW,196,3.0,6.0,100,-99.99,,,-99.99,,2013-01-13 18:53:00,
2013-01-13 14:00:00,39.0,39.0,30.06,West,261,3.0,9.0,100,-99.99,,,-99.99,,2013-01-13 19:00:00,
2013-01-13 14:23:00,39.0,39.0,30.06,West,261,3.0,9.0,100,-99.99,,,-99.99,,2013-01-13 19:23:00,
2013-01-13 14:33:00,39.0,39.0,30.06,West,261,3.0,9.0,100,-99.99,,,-99.99,,2013-01-13 19:33:00,
2013-01-13 14:43:00,39.0,39.0,30.06,West,261,3.0,9.0,100,-99.99,,,-99.99,,2013-01-13 19:43:00,
2013-01-13 14:53:00,39.0,39.0,30.06,West,261,3.0,9.0,100,-99.99,,,-99.99,,2013-01-13 19:53:00,
2013-01-13 15:00:00,38.0,38.0,30.06,South,178,5.0,10.0,100,-99.99,,,-99.99,,2013-01-13 20:00:00,
2013-01-13 15:23:00,38.0,38.0,30.06,South,178,5.0,10.0,100,-99.99,,,-99.99,,2013-01-13 20:23:00,
2013-01-13 15:33:00,38.0,38.0,30.06,South,178,5.0,10.0,100,-99.99,,,-99.99,,2013-01-13 20:33:00,
2013-01-13 15:43:00,38.0,38.0,30.06,South,178,5.0,10.0,100,-99.99,,,-99.99,,2013-01-13 20:43:00,
2013-01-13 15:53:00,38.0,38.0,30.06,South,178,5.0,10.0,100,-99.99,,,-99.99,,2013-01-13 20:53:00,
2013-01-13 16:00:00,37.0,37.0,30.06,SSW,211,2.0,9.0,100,-99.99,,,-99.99,,2013-01-13 21:00:00,
2013-01-13 16:23:00,37.0,37.0,30.06,SSW,211,2.0,9.0,100,-99.99,,,-99.99,,2013-01-13 21:23:00,
2013-01-13 16:33:00,37.0,37.0,30.06,SSW,211,2.0,9.0,100,-99.99,,,-99.99,,2013-01-13 21:33:00,
2013-01-13 16:43:00,37.0,37.0,30.06,SSW,211,2.0,9.0,100,-99.99,,,-99.99,,2013-01-13 21:43:00,
2013-01-13 16:53:00,37.0,37.0,30.06,SSW,211,2.0,9.0,100,-99.99,,,-99.99,,2013-01-13 21:53:00,
2013-01-13 17:00:00,35.0,35.0,30.06,SW,236,3.0,9.0,100,-99.99,,,-99.99,,2013-01-13 22:00:00,
2013-01-13 17:23:00,35.0,35.0,30.06,SW,236,3.0,9.0,100,-99.99,,,-99.99,,2013-01-13 22:23:00,
2013-01-13 17:33:00,35.0,35.0,30.06,SW,236,3.0,9.0,100,-99.99,,,-99.99,,2013-01-13 22:33:00,
2013-01-13 17:43:00,35.0,35.0,30.06,SW,236,3.0,9.0,100,-99.99,,,-99.99,,2013-01-13 22:43:00,
2013-01-13 17:53:00,35.0,35.0,30.06,SW,236,3.0,9.0,100,-99.99,,,-99.99,,2013-01-13 22:53:00,
2013-01-13 18:00:00,34.0,34.0,30.06,WSW,254,5.0,7.0,100,-99.99,,,-99.99,,2013-01-13 23:00:00,
2013-01-13 18:23:00,34.0,34.0,30.06,WSW,254,5.0,7.0,100,-99.99,,,-99.99,,2013-01-13 23:23:00,
2013-01-13 18:33:00,34.0,34.0,30.06,WSW,254,5.0,7.0,100,-99.99,,,-99.99,,2013-01-13 23:33:00,
2013-01-13 18:43:00,34.0,34.0,30.06,WSW,254,5.0,7.0,100,-99.99,,,-99.99,,2013-01-13 23:43:00,
2013-01-13 18:53:00,34.0,34.0,30.06,WSW,254,5.0,7.0,100,-99.99,,,-99.99,,2013-01-13 23:53:00,
2013-01-13 19:00:00,34.0,34.0,30.06,WSW,245,3.0,8.0,100,-99.99,,,-99.99,,2013-01-14 00:00:00,
2013-01-13 19:23:00,34.0,34.0,30.06,WSW,245,3.0,8.0,100,-99.99,,,-99.99,,2013-01-14 00:23:00,
2013-01-13 19:33:00,34.0,34.0,30.06,WSW,245,3.0,8.0,100,-99.99,,,-99.99,,2013-01-14 00:33:00,
2013-01-13 19:43:00,34.0,34.0,30.06,WSW,245,3.0,8.0,100,-99.99,,,-99.99,,2013-01-14 00:43:00,
2013-01-13 19:53:00,34.0,34.0,30.06,WSW,245,3.0,8.0,100,-99.99,,,-99.99,,2013-01-14 00:53:00,
2013-01-13 20:00:00,33.0,33.0,30.03,WSW,240,2.0,7.0,100,-99.99,,,-99.99,,2013-01-14 01:00:00,
2013-01-13 20:22:00,33.0,33.0,30.03,WSW,240,2.0,7.0,100,-99.99,,,-99.99,,2013-01-14 01:22:00,
2013-01-13 20:33:00,33.0,33.0,30.03,WSW,240,2.0,7.0,100,-99.99,,,-99.99,,2013-01-14 01:33:00,
2013-01-13 20:42:00,33.0,33.0,30.03,WSW,240,2.0,7.0,100,-99.99,,,-99.99,,2013-01-14 01:42:00,
2013-01-13 20:53:00,33.0,33.0,30.03,WSW,240,2.0,7.0,100,-99.99,,,-99.99,,2013-01-14 01:53:00,
2013-01-13 21:00:00,26.0,25.0,30.03,NNE,33,1.0,4.0,100,-99.99,,,-99.99,,2013-01-14 02:00:00,
2013-01-13 21:23:00,26.0,25.0,30.03,NNE,33,1.0,4.0,100,-99.99,,,-99.99,,2013-01-14 02:23:00,
2013-01-13 21:33:00,26.0,25.0,30.03,NNE,33,1.0,4.0,100,-99.99,,,-99.99,,2013-01-14 02:33:00,
2013-01-13 21:43:00,26.0,25.0,30.03,NNE,33,1.0,4.0,100,-99.99,,,-99.99,,2013-01-14 02:43:00,
2013-01-13 21:53:00,26.0,25.0,30.03,NNE,33,1.0,4.0,100,-99.99,,,-99.99,,2013-01-14 02:53:00,
2013-01-13 22:00:00,24.0,23.0,30.03,WNW,294,0.0,2.0,100,-99.99,,,-99.99,,2013-01-14 03:00:00,
2013-01-13 22:22:00,24.0,23.0,30.03,WNW,294,0.0,2.0,100,-99.99,,,-99.99,,2013-01-14 03:22:00,
2013-01-13 22:33:00,24.0,23.0,30.03,WNW,294,0.0,2.0,100,-99.99,,,-99.99,,2013-01-14 03:33:00,
2013-01-13 22:43:00,24.0,23.0,30.03,WNW,294,0.0,2.0,100,-99.99,,,-99.99,,2013-01-14 03:43:00,
2013-01-13 22:53:00,24.0,23.0,30.03,WNW,294,0.0,2.0,100,-99.99,,,-99.99,,2013-01-14 03:53:00,
2013-01-13 23:00:00,23.0,22.0,30.03,NW,315,0.0,3.0,100,-99.99,,,-99.99,,2013-01-14 04:00:00,
2013-01-13 23:22:00,23.0,22.0,30.03,NW,315,0.0,3.0,100,-99.99,,,-99.99,,2013-01-14 04:22:00,
2013-01-13 23:32:00,23.0,22.0,30.03,NW,315,0.0,3.0,100,-99.99,,,-99.99,,2013-01-14 04:32:00,
2013-01-13 23:42:00,23.0,22.0,30.03,NW,315,0.0,3.0,100,-99.99,,,-99.99,,2013-01-14 04:42:00,
2013-01-13 23:53:00,23.0,22.0,30.03,NW,315,0.0,3.0,100,-99.99,,,-99.99,,2013-01-14 04:53:00,